OKBK/KWI METAR and TAF weather

Enter ICAO airport designator
Station Type Date Time Source
OKBK METAR 2019/12/07 05:00 UTC NOAA

OKBK 070500Z 11006KT 6000 SCT040 BKN080 20/15 Q1015 NOSIG


Station Type Date Time Source
OKBK Decoded METAR 2019/12/07 05:00 UTC NOAA

Kuwait Internationalairport, Kuwait (OKBK) 29-13N 047-59E 55M
Dec 07, 2019 - 12:00 AM EST / 2019.12.07 0500 UTC
Wind: from the ESE (110 degrees) at 7 MPH (6 KT):0
Visibility: 3 mile(s):0
Sky conditions: mostly cloudy
Temperature: 68 F (20 C)
Dew Point: 59 F (15 C)
Relative Humidity: 72%
Pressure (altimeter): 29.97 in. Hg (1015 hPa)
ob: OKBK 070500Z 11006KT 6000 SCT040 BKN080 20/15 Q1015 NOSIG
cycle: 5

Station Type Date Time Source
OKBK TAF 2019/12/07 06:45 UTC NOAA

TAF TAF OKBK 070445Z 0706/0812 16012G25KT 7000 SCT040 BKN080
TEMPO 0706/0712 3000 TSRA/BLDU FEW030CB

Example: see airport list